Timeline UpdatesTrip UpdatesNews PostsPvt PostsTravel TipsAdmin PostsConv PostsFollowed PostsChat RequestsBlog PostsPNR Posts

Disclaimer
Search
 
 
Tue Sep 30, 2014 17:22:15 ISTHomeTrainsΣChainsAtlasPNRForumGalleryNewsFAQTripsMembersLoginFeedback
No Recent News for this Train
Other Trains in the News **new
Latest...
Temporary Stoppage at Mahadevsal Station every Sunday and Monday from 23.07.2013 to 21.08.2013 during Shravani Melaa
Tue Jul 23, 2013 (10:09AM)
⇐ Return Journey: Train# 18029

18030/Shalimar-Mumbai LTT [Kurla] Express

Time-Table HAS CHANGED.
Sep 28 (12:58PM)
Change Departure Station:
Change Arrival Station:
Post a Train Travel TipPost a Train Travel Tip **new
Post a Comment/Question/Picture/VideoPost a Comment/Question/Picture/Video
Pantry/Catering
✕ NO Pantry Car
✓ Catering Avbl
RSA - Rake Sharing
runs with 5 dedicated rake.. no RSA...
Rake/Coach Composition
LOCO-HCPV-HCPV-SLR-GS-S13-S12-S11-S10-S9-S8-S7-S6-S5-S4-S3-S2-S1-B1-A1-GS-SLR-HCPV-HCPV
Loco
HWH/SRC WAP-4
News    PNR    Forum    Time-Table    Availability    Fare Chart    Map    Arr/Dep History    Trips    Gallery    ΣChains    X/O    Timeline    
Travel Time: 0h 33m    0 halts    Distance: 39 km    Avg Speed: 70 km/hr
Type: Mail/Express
Zone: SER/South Eastern
Departs @ 17:50
Platform# ???
SMTWTFS
Kharagpur Junction/KGP 
Arrives @ 18:23
Platform# ???
SMTWTFS
Jhargram/JGM 

0 halts. 5 intermediate Stations between Kharagpur Junction and Jhargram

Show ALL intermediate Stations  Show Old Time-Table

#CodeStation NameX/OArrivesAvgDepartsAvgHaltPFDay#KmSpeedElevZoneAddress
1SHMKolkata Shalimar (2)  -15:00-11-112.3285mSERSHIBPUR . DIST- Howrah, West Bengal
2SRCKolkata Santragachi Junction (6)  15:11 15:10-15:12-1 2m11-107.6657mSERDist: Howrah - 711104, West Bengal
3ULBUluberia (6)XO  15:36 15:35-15:37-1 2m11-82.85010mSERdist - howrah, West Bengal
4MCAMecheda (6)X  16:09 16:08-16:10-1 2m--1-56.82710mSERdist - purba Medinipur, West Bengal
5PKUPanskura Junction (6)X  16:39 16:38-16:40-1 2m--1-44.4489mSERPanskura, West Bengal
6KGPKharagpur Junction (10)»X  17:35-17:50-15m--10.07142mSERKharagpur, West Bengal
7JGMJhargram (4)•X  18:24 18:23-18:25-1 2m--139.18382mSERJhargram, West Bengal
8CKUChakulia (4)  18:47 18:46-18:48-1 2m--168.487126mSERChakulia, Jharkhand
9GTSGhatsila (3)  19:11 19:09-19:12 19:11-1 2m--198.960103mSEREast Singhbhum, Jharkhand
10GUDGaludih (4)  19:23 19:21-19:24 19:23-1 2m--1108.946120mSEREast Singhbhum, Jharkhand
11RHERakha Mines (2)  19:34 19:32-19:35 19:34-1 2m--1115.845118mSEREast Singhbhum, Jharkhand
12TATATatanagar Junction (5)X  20:05 20:00-20:10 20:05-5m--1135.156164mSER91-657-2423026, Jharkhand
13SINISini Junction (3)  20:36 20:34-20:37 20:35-1m--1162.161182mSERNational Highway 33, Jharkhand
14RKSNRajkharsawan Junction (3)  20:53 20:50-20:54 20:51-1m--1177.371189mSERSaraikela Kharswan District, Jharkhand
15CKPChakradharpur (3)X  21:11 21:08-21:16 21:13-5m11197.379235mSERChakradharpur (West Singhbhum), Jharkhand
16SWRSonua  21:31 21:29-21:32 21:30-1m--1218.364287mSERSonua, Jharkhand
17GOLGoilkera (2)X  21:44 21:42-21:45 21:43-1m--1231.157333mSERGoilkera, Jharkhand
18MOUManoharpur  22:15 22:12-22:16 22:13-1m--1258.674228mSERManoharpur, Jharkhand
19BNDMBondamunda (2)  22:42 22:40-22:43 22:41-1m--1291.921213mSERRourkela, Odisha
20ROURourkela Junction (5)X  23:03 23:00-23:13 23:10-10m21298.469198mSERRourkela, Odisha
21GPRaj Gangpur (3)  23:40 23:36-23:41 23:37-1m11328.269237mSERRaj Ganpur, Odisha
22BMBBamra (3)  00:09 00:07-00:10 00:08-1m--2362.852259mSERBamra PH : 06642-229268, Odisha
23JSGJharsuguda Junction (5)XO  00:50-00:55-5m12399.388236mSERJharsuguda, Odisha
24BRJNBrajrajnagarX  01:04 01:03-01:05-1 2m--2411.067212mSECRBrajrajnagar, Odisha
25BPHBelpahar  01:14 01:13-01:15-1 2m--2419.985 SECRBelpahar, Odisha
26RIGRaigarh (3)  01:51-01:56-5m--2471.093220mSECRRaigarh, Chhattisgarh
27KHSKharsia  02:19 02:18-02:20-1 2m--2504.977 SECRNational Highway 200, Chhattisgarh
28SKTSakti (4)  02:33 02:32-02:34-1 2m--2520.376237mSECRJanjgir-Champa, Chhattisgarh
29CPHChampa Junction (3)X  02:58-03:03-5m--2550.772264mSECRNational Highway 200 (07819-245767), Chhattisgarh
30NIANailaX  03:13 03:12-03:14-1 2m--2561.675273mSECRJanjgir, Chhattisgarh
31AKTAkaltara (4)  03:27 03:26-03:28-1 2m--2576.529284mSECRDist. Janjgir Champa, Chhattisgarh
32BSPBilaspur Junction (8)  04:25-04:45-20m32603.849271mSECRBilaspur, Chhattisgarh
33BYLBelhaO  05:04-05:05-1m--2619.380269mSECRCollege Road, Chhattisgarh
34BYTBhatapara (4)O  05:29 05:28-05:30-1 2m--2649.987270mSECRBanjari Road, Chhattisgarh
35TLDTilda (3)  05:49 05:48-05:50-1 2m12676.051 SECRBanjari Rd, Chhattisgarh
36RRaipur Junction (6)X  06:35-06:45-10m12714.270297mSECRRaipur, Chhattisgarh
37DBECDevbaloda CharodaX  07:02-07:03-1m--2734.141310mSECRBhilai, Chhattisgarh
38BIABhilai (2)X  07:09 07:08-07:10-1 2m--2737.546309mSECRBhilai, Chhattisgarh
39BPHBBhilai Power House (3)X  07:17 07:16-07:18-1 2m--2742.227312mSECRBhilai, Chhattisgarh
40BQRBhilai Nagar (2)  07:29 07:28-07:30-1 2m--2746.618298mSECRBhilai, Chhattisgarh
41DURGDurg Junction (6)X  07:45-07:55-10m--2751.187299mSECRPh: 91-788-2322059, Chhattisgarh
42RJNRaj Nandgaon (3)  08:16-08:21-5m--2781.682313mSECRRajnandgaon, Chhattisgarh
43DGGDongargarh (2)  08:44-08:45-1m--2813.161 SECRDongargarh, Chhattisgarh
44SKSSalekasa (2)  09:21 09:20-09:22-1 2m--2848.980312mSECRRajnandgaon, Chhattisgarh
45AGNAmgaon (2)  09:34 09:33-09:35-1 2m--2863.646317mSECRGondia, Maharashtra
46GGondia Junction (7)X  10:05-10:15-10m--2886.492316mSECRGondia 441601, Maharashtra
47TROTirora (3)X  10:35 10:34-10:36-1 2m--2915.772282mSECRDist Gondia, Maharashtra
48TMRTumsar Road (5)X  10:54 10:53-10:55-1 2m--2936.067267mSECRDistt. Bhandara, Maharashtra
49BRDBhandara Road (3)  11:12 11:11-11:13-1 2m--2954.078266mSECRState Highway 252 Bhandara District, Maharashtra
50KPKamptee (3)X  11:51 11:50-11:52-1 2m--21001.933290mSECRKamptee, Maharashtra
51ITRItwari (3)O  12:12 12:11-12:13-1 2m--21012.44306mSECRNagpur, Maharashtra
52NGPNagpur Junction (8)X  13:15-13:40-25m721016.223314mCRNagpur 440001, Maharashtra
53AJNIAjni (3)  13:48-13:49-1m221019.282310mCRNagpur 440003, Maharashtra
54SNISindi (2)  14:21-14:22-1m121063.157258mCRWardha, Maharashtra
55SEGMSewagram Junction (5)X  14:53-14:54-1m121092.420279mCRWardha, Maharashtra
56WRWardha Junction (4)  15:02-15:05-3m221095.184289mCRWardha 442001, Maharashtra
57PLOPulgaon Junction (3)  15:26-15:27-1m221124.670273mCRPulgaon, Maharashtra
58DMNDhamangaon (2)  15:44-15:45-1m121144.663300mCRDhamangaon, Maharashtra
59CNDChandur (2)X  16:01-16:02-1m--21161.330331mCRAmravati Distt, Maharashtra
60BDBadnera Junction (4)  17:00-17:05-5m121190.090335mCRBadnera (Amravati) 444701, Maharashtra
61MZRMurtizapur (3)X  17:33-17:35-2m121231.874303mCRMurtajapur, Maharashtra
62AKAkola Junction (7)  18:05-18:10-5m121269.086284mCRAkola-444001, Maharashtra
63PSParas (2)  18:24-18:25-1m--21289.074282mCRAkola, Maharashtra
64SEGShegaon (2)  18:39-18:40-1m--21306.183281mCRShegaon 444203, Maharashtra
65JMJalamb Junction (3)X  18:49-18:50-1m--21318.682259mCRJalamb, Maharashtra
66NNNandura (2)X  18:59-19:00-1m--21330.870267mCRNandura, Maharashtra
67MKUMalkapur (2)X  19:24-19:25-1m121358.762252mCRMalkapur, Maharashtra
68BDWDBodwad (2)X  19:44-19:45-1m--21378.340294mCRBodwad, Maharashtra
69BSLBhusaval Junction (8)X  20:30-20:45-15m521408.660208mCRBhusaval 425201, Maharashtra
70JLJalgaon Junction (4)  21:09-21:10-1m221432.784213mCRJalgaon 425001, Maharashtra
71PCPachora Junction (4)X  21:44-21:45-1m--21480.493264mCRPachora 424201, Maharashtra
72CSNChalisgaon Junction (3)  22:14-22:15-1m--21525.387352mCRChalisgaon 424101, Maharashtra
73NGNNandgaon (3)  22:44-22:45-1m--21567.461476mCRNandgaon, Maharashtra
74MMRManmad Junction (6)  23:12 23:10-23:15-3 5m321592.877580mCRManmad 423104, Maharashtra
75LSLasalgaon (3)  23:34-23:35-1m--21617.372592mCRLasalgaon, Maharashtra
76NKNasik Road (3)X  00:19 00:15-00:20-1 5m331665.538563mCRNashik 422101, Maharashtra
77DVLDevlali (3)X  00:29-00:30-1m231671.336561mCRDist. Nashik 422401, Maharashtra
78IGPIgatpuri (4)XO  01:49 01:45-01:50-1 5m--31716.220589mCRIgatpuri 422403, Maharashtra
79KSRAKasara (4)XO  02:39 02:33-02:40 02:35-1 2m--31730.658290mCRDist. Thane 421602, Maharashtra
80KYNKalyan Junction (8)O  03:50 03:45-03:55 03:50-5m631798.06710mCRKalyan 421301, Maharashtra
81TNAThane (10)  04:09 04:08-04:10-1 2m831818.22510mCRThane (West) 400602, Maharashtra
82LTTMumbai Lokmanya Tilak Terminus (5)  04:50--331834.7-7mCRMumbai - 400089, Maharashtra
Scroll to Top
Scroll to Bottom